Time;durP1;ratioP1;P1;durP2;ratioP2;P2;SDS_P1;SDS_P2;PMS_P1;PMS_P2;Temp;Humidity;BMP_temperature;BMP_pressure;BME280_temperature;BME280_humidity;BME280_pressure;Samples;Min_cycle;Max_cycle;Signal;HPM_P1;HPM_P2
2023/12/07 00:00:07;;;;;;;43.60;21.87;;;;;;;5.79;100.00;94813.81;4994772;28;20245;-77
2023/12/07 00:02:33;;;;;;;42.17;20.57;;;;;;;5.94;100.00;94816.50;4993516;28;20362;-78
2023/12/07 00:04:59;;;;;;;38.20;19.00;;;;;;;5.91;100.00;94811.66;4992060;28;20231;-77
2023/12/07 00:07:24;;;;;;;36.40;17.33;;;;;;;5.87;100.00;94818.19;4996244;28;20243;-79
2023/12/07 00:09:50;;;;;;;37.67;18.53;;;;;;;5.85;100.00;94814.94;4978096;28;20240;-78
2023/12/07 00:12:15;;;;;;;40.50;20.10;;;;;;;5.82;100.00;94818.66;4976438;28;20803;-77
2023/12/07 00:14:41;;;;;;;40.33;19.50;;;;;;;5.88;100.00;94824.97;4991535;28;20310;-76
2023/12/07 00:17:07;;;;;;;36.97;18.40;;;;;;;5.85;100.00;94820.94;4976492;28;20341;-77
2023/12/07 00:19:32;;;;;;;34.17;16.13;;;;;;;5.86;100.00;94821.75;4966493;28;20302;-78
2023/12/07 00:21:58;;;;;;;33.17;16.03;;;;;;;5.86;100.00;94819.16;4976141;28;20239;-77
2023/12/07 00:24:24;;;;;;;33.63;16.20;;;;;;;5.79;100.00;94820.78;4978751;28;20329;-78
2023/12/07 00:26:49;;;;;;;30.93;15.17;;;;;;;5.79;100.00;94824.19;4992416;28;21273;-78
2023/12/07 00:29:15;;;;;;;26.53;13.73;;;;;;;5.77;100.00;94820.97;4975954;28;20247;-78
2023/12/07 00:31:41;;;;;;;29.73;14.30;;;;;;;5.81;100.00;94821.41;4972524;28;20235;-79
2023/12/07 00:34:09;;;;;;;26.40;12.87;;;;;;;5.85;100.00;94817.56;4955924;28;20311;-78
2023/12/07 00:36:35;;;;;;;25.47;12.60;;;;;;;5.90;100.00;94816.03;4975873;28;20336;-78
2023/12/07 00:39:01;;;;;;;27.50;13.27;;;;;;;5.82;100.00;94823.06;4982683;28;20733;-77
2023/12/07 00:41:26;;;;;;;27.30;13.27;;;;;;;5.83;100.00;94819.47;4976512;28;21075;-78
2023/12/07 00:43:52;;;;;;;28.73;13.77;;;;;;;5.81;100.00;94816.22;4958032;28;20289;-78
2023/12/07 00:46:17;;;;;;;29.17;14.77;;;;;;;5.88;100.00;94828.38;4972182;28;20236;-78
2023/12/07 00:48:43;;;;;;;30.00;14.80;;;;;;;5.84;100.00;94818.50;4975042;28;20239;-78
2023/12/07 00:51:08;;;;;;;31.80;15.30;;;;;;;5.85;100.00;94812.34;4976814;28;20261;-78
2023/12/07 00:53:34;;;;;;;33.60;15.80;;;;;;;5.82;100.00;94823.06;4974736;28;20236;-78
2023/12/07 00:55:59;;;;;;;34.63;16.23;;;;;;;5.76;100.00;94814.16;4966505;28;20236;-78
2023/12/07 00:58:25;;;;;;;45.63;19.63;;;;;;;5.76;100.00;94810.75;4979560;28;20331;-78
2023/12/07 01:00:51;;;;;;;45.80;19.30;;;;;;;5.79;100.00;94813.00;4963065;28;20231;-78
2023/12/07 01:03:16;;;;;;;37.57;15.37;;;;;;;5.77;100.00;94810.59;4973780;28;20251;-79
2023/12/07 01:05:42;;;;;;;32.37;15.30;;;;;;;5.78;100.00;94811.41;4977823;28;20986;-77
2023/12/07 01:08:08;;;;;;;33.63;15.63;;;;;;;5.74;100.00;94812.72;4980942;28;20845;-77
2023/12/07 01:10:33;;;;;;;29.30;14.63;;;;;;;5.71;100.00;94815.66;4979307;28;20892;-78
2023/12/07 01:12:59;;;;;;;33.80;15.10;;;;;;;5.64;100.00;94802.56;4975701;28;20301;-77
2023/12/07 01:15:24;;;;;;;29.70;14.07;;;;;;;5.72;100.00;94806.88;4975066;28;20305;-76
2023/12/07 01:17:50;;;;;;;32.53;14.67;;;;;;;5.78;100.00;94806.22;4990820;28;20396;-76
2023/12/07 01:20:17;;;;;;;27.17;13.03;;;;;;;5.85;100.00;94809.75;4982065;28;20235;-77
2023/12/07 01:22:42;;;;;;;26.60;13.47;;;;;;;5.83;100.00;94803.88;4990366;28;20244;-77
2023/12/07 01:25:08;;;;;;;29.87;13.43;;;;;;;5.78;100.00;94807.00;4980962;28;20720;-77
2023/12/07 01:27:34;;;;;;;29.90;13.73;;;;;;;5.79;100.00;94803.44;4988737;28;20241;-78
2023/12/07 01:29:59;;;;;;;30.07;13.33;;;;;;;5.80;100.00;94802.47;4975117;28;21181;-78
2023/12/07 01:32:25;;;;;;;28.50;13.50;;;;;;;5.80;100.00;94799.06;4990501;28;20247;-77
2023/12/07 01:34:51;;;;;;;30.07;13.50;;;;;;;5.86;100.00;94800.97;4992661;28;20228;-78
2023/12/07 01:37:16;;;;;;;28.27;14.33;;;;;;;5.87;100.00;94802.59;4982090;28;20240;-77
2023/12/07 01:39:43;;;;;;;28.37;13.67;;;;;;;5.82;100.00;94797.09;4975556;28;20231;-77
2023/12/07 01:42:09;;;;;;;28.77;14.10;;;;;;;5.90;100.00;94786.66;4979198;28;20227;-78
2023/12/07 01:44:34;;;;;;;31.33;14.17;;;;;;;5.79;100.00;94795.63;4979494;28;20239;-78
2023/12/07 01:47:01;;;;;;;29.33;14.10;;;;;;;5.77;100.00;94791.59;4975557;28;20679;-78
2023/12/07 01:49:28;;;;;;;31.07;14.07;;;;;;;5.76;100.00;94792.56;4962070;28;20252;-79
2023/12/07 01:51:54;;;;;;;29.93;14.47;;;;;;;5.82;100.00;94797.91;4963801;28;20246;-77
2023/12/07 01:54:20;;;;;;;32.33;14.93;;;;;;;5.97;100.00;94790.19;4966559;28;20228;-77
2023/12/07 01:56:45;;;;;;;33.60;15.60;;;;;;;5.89;100.00;94790.25;4979208;28;20223;-76
2023/12/07 01:59:11;;;;;;;34.17;15.87;;;;;;;5.94;100.00;94785.34;4984352;28;20232;-76
2023/12/07 02:01:36;;;;;;;35.03;16.17;;;;;;;6.07;100.00;94794.16;4977175;28;20285;-77
2023/12/07 02:04:02;;;;;;;37.60;17.00;;;;;;;6.09;100.00;94792.19;4973359;28;20651;-77
2023/12/07 02:06:28;;;;;;;35.93;16.87;;;;;;;6.20;100.00;94795.34;4972314;28;20291;-77
2023/12/07 02:08:54;;;;;;;36.27;16.90;;;;;;;6.12;100.00;94796.22;4980260;28;20323;-77
2023/12/07 02:11:19;;;;;;;35.73;16.10;;;;;;;6.15;100.00;94795.88;4990704;28;20227;-77
2023/12/07 02:13:45;;;;;;;37.83;16.63;;;;;;;6.09;100.00;94791.38;4964689;28;20322;-77
2023/12/07 02:16:15;;;;;;;35.73;17.00;;;;;;;6.01;100.00;94787.06;4974328;28;20622;-77
2023/12/07 02:18:44;;;;;;;34.43;16.27;;;;;;;5.95;100.00;94789.53;4962584;28;20248;-76
2023/12/07 02:21:29;;;;;;;36.47;16.33;;;;;;;6.05;100.00;94792.72;4966849;28;20729;-76
2023/12/07 02:23:54;;;;;;;38.97;17.23;;;;;;;6.07;100.00;94780.34;4979565;28;20270;-77
2023/12/07 02:26:49;;;;;;;35.20;16.07;;;;;;;6.16;100.00;94779.31;4974611;28;20263;-77
2023/12/07 02:29:14;;;;;;;37.90;16.83;;;;;;;6.11;100.00;94789.44;4987247;28;20250;-77
2023/12/07 02:31:40;;;;;;;35.07;16.30;;;;;;;6.08;100.00;94781.97;4972444;28;20232;-77
2023/12/07 02:34:05;;;;;;;36.80;16.50;;;;;;;5.93;100.00;94775.91;4960039;28;20374;-77
2023/12/07 02:36:31;;;;;;;39.03;17.60;;;;;;;5.91;100.00;94783.09;4955811;28;20310;-77
2023/12/07 02:38:57;;;;;;;34.47;16.00;;;;;;;6.07;100.00;94778.56;4974029;28;20265;-77
2023/12/07 02:41:23;;;;;;;39.63;17.70;;;;;;;6.14;100.00;94781.25;4976345;28;20644;-77
2023/12/07 02:43:48;;;;;;;41.87;18.23;;;;;;;6.18;100.00;94785.13;4972402;28;20244;-77
2023/12/07 02:46:14;;;;;;;38.67;17.23;;;;;;;6.24;100.00;94775.81;4964640;28;20707;-77
2023/12/07 02:48:39;;;;;;;35.97;16.80;;;;;;;6.15;100.00;94771.69;4986523;28;20667;-77
2023/12/07 02:51:05;;;;;;;37.43;17.40;;;;;;;6.03;100.00;94769.50;4976532;28;20237;-77
2023/12/07 02:53:31;;;;;;;36.30;17.10;;;;;;;6.08;100.00;94776.78;4975147;28;20240;-76
2023/12/07 02:55:57;;;;;;;36.93;16.87;;;;;;;5.96;100.00;94772.97;4979602;28;20228;-77
2023/12/07 02:58:22;;;;;;;36.27;16.30;;;;;;;6.06;100.00;94779.56;4974470;28;20240;-76
2023/12/07 03:00:48;;;;;;;36.40;16.50;;;;;;;6.03;100.00;94779.91;4953837;28;20293;-76
2023/12/07 03:03:13;;;;;;;32.30;15.57;;;;;;;5.92;100.00;94774.31;4991317;28;20631;-77
2023/12/07 03:05:39;;;;;;;32.30;15.37;;;;;;;5.98;100.00;94787.41;4980559;28;20223;-76
2023/12/07 03:08:04;;;;;;;33.90;15.50;;;;;;;5.95;100.00;94782.56;4976636;28;20236;-76
2023/12/07 03:10:30;;;;;;;30.93;14.43;;;;;;;5.86;100.00;94782.78;4976518;28;20231;-76
2023/12/07 03:12:56;;;;;;;29.13;14.03;;;;;;;5.86;100.00;94782.78;4970633;28;20377;-76
2023/12/07 03:15:21;;;;;;;26.83;12.70;;;;;;;5.94;100.00;94787.94;4976773;28;20282;-77
2023/12/07 03:17:48;;;;;;;23.67;12.10;;;;;;;5.80;100.00;94796.47;4977117;28;20307;-77
2023/12/07 03:20:14;;;;;;;25.70;11.73;;;;;;;5.83;100.00;94796.09;4987434;28;20224;-77
2023/12/07 03:22:39;;;;;;;24.87;11.70;;;;;;;5.91;100.00;94794.28;4962168;28;20239;-76
2023/12/07 03:25:05;;;;;;;23.40;10.97;;;;;;;5.92;100.00;94792.50;4953382;28;20270;-77
2023/12/07 03:27:31;;;;;;;23.33;11.33;;;;;;;5.89;100.00;94793.66;4962915;28;20286;-76
2023/12/07 03:29:56;;;;;;;24.07;11.07;;;;;;;5.90;100.00;94795.25;4979130;28;20239;-77
2023/12/07 03:32:22;;;;;;;24.80;11.50;;;;;;;5.79;100.00;94803.44;4993093;28;20349;-77
2023/12/07 03:34:48;;;;;;;24.33;11.40;;;;;;;5.91;100.00;94802.06;4986487;28;20236;-77
2023/12/07 03:37:13;;;;;;;21.37;10.73;;;;;;;5.93;100.00;94802.72;4976475;28;20723;-77
2023/12/07 03:39:39;;;;;;;23.47;11.30;;;;;;;5.85;100.00;94817.56;4977456;28;20872;-77
2023/12/07 03:42:04;;;;;;;23.10;11.17;;;;;;;5.82;100.00;94808.28;4975507;28;20236;-77
2023/12/07 03:44:30;;;;;;;21.60;11.13;;;;;;;5.87;100.00;94810.38;4974582;28;20258;-76
2023/12/07 03:46:56;;;;;;;22.17;11.23;;;;;;;5.83;100.00;94809.06;4993721;28;20255;-77
2023/12/07 03:49:22;;;;;;;23.37;11.40;;;;;;;5.76;100.00;94808.16;4979839;28;20660;-77
2023/12/07 03:51:47;;;;;;;27.13;11.27;;;;;;;5.76;100.00;94800.34;4974476;28;20231;-73
2023/12/07 03:54:13;;;;;;;23.63;11.27;;;;;;;5.75;100.00;94801.34;4969776;28;20215;-75
2023/12/07 03:56:40;;;;;;;23.63;11.03;;;;;;;5.72;100.00;94797.31;4974708;28;20232;-76
2023/12/07 03:59:06;;;;;;;23.17;11.23;;;;;;;5.73;100.00;94800.72;4962426;28;20236;-76
2023/12/07 04:01:32;;;;;;;23.40;11.00;;;;;;;5.69;100.00;94795.06;4982409;28;20751;-77
2023/12/07 04:03:57;;;;;;;23.00;11.43;;;;;;;-142.32;100.00;62735.25;4994304;28;20242;-77
2023/12/07 04:06:23;;;;;;;22.47;10.73;;;;;;;-142.32;100.00;62735.25;4975664;28;20239;-77
2023/12/07 04:08:49;;;;;;;23.13;11.47;;;;;;;-142.32;100.00;62735.25;4979771;28;20253;-77
2023/12/07 04:11:14;;;;;;;24.20;10.83;;;;;;;-142.32;100.00;62735.25;4974269;28;20253;-76
2023/12/07 04:13:41;;;;;;;22.30;10.90;;;;;;;-142.32;100.00;62735.25;4993073;28;20311;-72
2023/12/07 04:16:07;;;;;;;25.00;11.20;;;;;;;-142.32;100.00;62735.25;4976418;28;20818;-73
2023/12/07 04:18:33;;;;;;;21.37;11.03;;;;;;;-142.32;100.00;62735.25;4977904;28;20680;-74
2023/12/07 04:20:58;;;;;;;24.47;11.63;;;;;;;-142.32;100.00;62735.25;4976242;28;20238;-73
2023/12/07 04:23:27;;;;;;;21.87;10.77;;;;;;;-142.32;100.00;62735.25;4976268;28;20313;-74
2023/12/07 04:25:52;;;;;;;22.03;11.10;;;;;;;-142.32;100.00;62735.25;4977198;28;20289;-74
2023/12/07 04:28:18;;;;;;;23.10;11.87;;;;;;;-142.32;100.00;62735.25;4980511;28;20801;-74
2023/12/07 04:30:44;;;;;;;23.97;12.10;;;;;;;-142.32;100.00;62735.25;4971290;28;20926;-74
2023/12/07 04:33:09;;;;;;;29.63;13.20;;;;;;;-142.32;100.00;62735.25;4979993;28;20273;-75
2023/12/07 04:35:35;;;;;;;27.40;12.80;;;;;;;-142.32;100.00;62735.25;4966154;28;20228;-76
2023/12/07 04:38:01;;;;;;;27.00;12.97;;;;;;;-142.32;100.00;62735.25;4979497;28;20259;-77
2023/12/07 04:40:26;;;;;;;26.37;12.47;;;;;;;-142.32;100.00;62735.25;4955166;28;20232;-78
2023/12/07 04:42:52;;;;;;;25.43;12.47;;;;;;;-142.32;100.00;62735.25;4966402;28;20632;-77
2023/12/07 04:45:17;;;;;;;26.33;12.93;;;;;;;-142.32;100.00;62735.25;4966474;28;20243;-74
2023/12/07 04:47:43;;;;;;;28.10;12.90;;;;;;;-142.32;100.00;62735.25;4976096;28;20231;-73
2023/12/07 04:50:09;;;;;;;25.20;12.80;;;;;;;-142.32;100.00;62735.25;4991644;28;20243;-73
2023/12/07 04:52:35;;;;;;;24.97;12.67;;;;;;;-142.32;100.00;62735.25;4982611;28;20228;-73
2023/12/07 04:55:01;;;;;;;25.57;12.10;;;;;;;-142.32;100.00;62735.25;4980995;28;20235;-74
2023/12/07 04:57:27;;;;;;;23.43;12.20;;;;;;;-142.32;100.00;62735.25;4980527;28;20228;-73
2023/12/07 04:59:52;;;;;;;24.90;12.20;;;;;;;-142.32;100.00;62735.25;4975852;28;20235;-73
2023/12/07 05:02:18;;;;;;;24.80;11.50;;;;;;;-142.32;100.00;62735.25;4957494;28;20227;-73
2023/12/07 05:04:44;;;;;;;22.87;11.20;;;;;;;-142.32;100.00;62735.25;4979711;28;20228;-73
2023/12/07 05:07:11;;;;;;;25.90;12.07;;;;;;;-142.32;100.00;62735.25;4979193;28;20270;-73
2023/12/07 05:09:38;;;;;;;26.20;12.83;;;;;;;-142.32;100.00;62735.25;4974766;28;20247;-74
2023/12/07 05:12:04;;;;;;;24.60;12.47;;;;;;;-142.32;100.00;62735.25;4975028;28;20266;-73
2023/12/07 05:14:34;;;;;;;25.43;12.30;;;;;;;-142.32;100.00;62735.25;4975936;28;20235;-74
2023/12/07 05:17:00;;;;;;;22.83;11.80;;;;;;;-142.32;100.00;62735.25;4960136;28;20254;-73
2023/12/07 05:19:26;;;;;;;25.00;12.30;;;;;;;-142.32;100.00;62735.25;4979970;28;20231;-76
2023/12/07 05:21:52;;;;;;;26.30;11.97;;;;;;;-142.32;100.00;62735.25;4981106;28;20680;-75
2023/12/07 05:24:18;;;;;;;27.93;12.40;;;;;;;-142.32;100.00;62735.25;4947600;28;20239;-75
2023/12/07 05:26:46;;;;;;;24.73;12.20;;;;;;;-142.32;100.00;62735.25;4958763;28;20310;-73
2023/12/07 05:29:11;;;;;;;25.87;12.33;;;;;;;-142.32;100.00;62735.25;4967883;28;20242;-74
2023/12/07 05:31:37;;;;;;;25.27;12.80;;;;;;;-142.32;100.00;62735.25;4971071;28;20231;-75
2023/12/07 05:34:03;;;;;;;26.17;12.67;;;;;;;-142.32;100.00;62735.25;4976425;28;20239;-74
2023/12/07 05:36:29;;;;;;;26.20;12.50;;;;;;;-142.32;100.00;62735.25;4980804;28;20235;-75
2023/12/07 05:38:54;;;;;;;25.27;11.90;;;;;;;-142.32;100.00;62735.25;4976209;28;20231;-74
2023/12/07 05:41:20;;;;;;;24.80;12.73;;;;;;;-142.32;100.00;62735.25;4976258;28;20275;-73
2023/12/07 05:43:46;;;;;;;25.50;12.50;;;;;;;-142.32;100.00;62735.25;4990521;28;20252;-75
2023/12/07 05:46:11;;;;;;;28.83;13.13;;;;;;;-142.32;100.00;62735.25;4991112;28;20269;-74
2023/12/07 05:48:37;;;;;;;29.10;13.63;;;;;;;-142.32;100.00;62735.25;4980436;28;20244;-75
2023/12/07 05:51:03;;;;;;;30.30;14.40;;;;;;;-142.32;100.00;62735.25;4970939;28;20232;-73
2023/12/07 05:53:30;;;;;;;30.27;15.07;;;;;;;-142.32;100.00;62735.25;4990691;28;20252;-74
2023/12/07 05:55:56;;;;;;;30.47;15.03;;;;;;;-142.32;100.00;62735.25;4974712;28;20251;-72
2023/12/07 05:58:22;;;;;;;33.27;15.00;;;;;;;-142.32;100.00;62735.25;4974043;28;20265;-74
2023/12/07 06:00:48;;;;;;;30.87;13.93;;;;;;;-142.32;100.00;62735.25;4965999;28;20310;-73
2023/12/07 06:03:13;;;;;;;28.30;14.20;;;;;;;-142.32;100.00;62735.25;4975821;28;20342;-74
2023/12/07 06:05:40;;;;;;;31.03;14.90;;;;;;;-142.32;100.00;62735.25;4975660;28;20614;-74
2023/12/07 06:08:05;;;;;;;30.63;14.97;;;;;;;-142.32;100.00;62735.25;4977309;28;20237;-74
2023/12/07 06:10:31;;;;;;;33.47;15.00;;;;;;;-142.32;100.00;62735.25;4989436;28;20243;-74
2023/12/07 06:12:59;;;;;;;28.83;14.17;;;;;;;-142.32;100.00;62735.25;4989451;28;20232;-75
2023/12/07 06:15:24;;;;;;;29.00;14.10;;;;;;;-142.32;100.00;62735.25;4965302;28;20243;-74
2023/12/07 06:17:50;;;;;;;26.83;13.40;;;;;;;-142.32;100.00;62735.25;4974818;28;20657;-74
2023/12/07 06:20:16;;;;;;;27.17;12.97;;;;;;;-142.32;100.00;62735.25;4957521;28;20323;-74
2023/12/07 06:22:41;;;;;;;24.93;12.30;;;;;;;-142.32;100.00;62735.25;4976844;28;20242;-76
2023/12/07 06:25:08;;;;;;;25.13;12.13;;;;;;;-142.32;100.00;62735.25;4978641;28;20306;-76
2023/12/07 06:27:35;;;;;;;24.40;11.93;;;;;;;-142.32;100.00;62735.25;4975325;28;20695;-73
2023/12/07 06:30:01;;;;;;;26.87;12.00;;;;;;;-142.32;100.00;62735.25;4988768;28;20231;-74
2023/12/07 06:32:30;;;;;;;27.17;12.27;;;;;;;-142.32;100.00;62735.25;4965043;28;20286;-74
2023/12/07 06:34:55;;;;;;;28.57;12.50;;;;;;;-142.32;100.00;62735.25;4991306;28;20246;-74
2023/12/07 06:37:21;;;;;;;23.53;12.03;;;;;;;-142.32;100.00;62735.25;4963041;28;20356;-74
2023/12/07 06:39:48;;;;;;;26.87;12.17;;;;;;;-142.32;100.00;62735.25;4963917;28;20245;-73
2023/12/07 06:42:15;;;;;;;26.83;12.90;;;;;;;-142.32;100.00;62735.25;4974013;28;20310;-74
2023/12/07 06:44:45;;;;;;;25.03;12.37;;;;;;;-142.32;100.00;62735.25;4977723;28;20309;-74
2023/12/07 06:47:11;;;;;;;24.07;11.33;;;;;;;-142.32;100.00;62735.25;4974543;28;20224;-74
2023/12/07 06:49:37;;;;;;;22.07;11.07;;;;;;;-142.32;100.00;62735.25;4958364;28;20310;-74
2023/12/07 06:52:02;;;;;;;21.33;10.80;;;;;;;-142.32;100.00;62735.25;4975027;28;20233;-74
2023/12/07 06:54:28;;;;;;;23.33;11.23;;;;;;;-142.32;100.00;62735.25;4976467;28;20240;-75
2023/12/07 06:56:53;;;;;;;26.03;11.87;;;;;;;-142.32;100.00;62735.25;4974377;28;20286;-74
2023/12/07 06:59:20;;;;;;;24.30;11.40;;;;;;;-142.32;100.00;62735.25;4978937;28;20322;-74
2023/12/07 07:01:45;;;;;;;20.20;10.33;;;;;;;-142.32;100.00;62735.25;4980279;28;20231;-73
2023/12/07 07:04:11;;;;;;;23.87;10.90;;;;;;;-142.32;100.00;62735.25;4977614;28;20340;-74
2023/12/07 07:06:36;;;;;;;21.10;10.77;;;;;;;-142.32;100.00;62735.25;4984025;28;20231;-74
2023/12/07 07:09:04;;;;;;;21.90;10.50;;;;;;;-142.32;100.00;62735.25;4975336;28;20257;-74
2023/12/07 07:11:30;;;;;;;22.80;10.97;;;;;;;-142.32;100.00;62735.25;4979852;28;20227;-74
2023/12/07 07:13:58;;;;;;;22.17;10.70;;;;;;;-142.32;100.00;62735.25;4981130;28;20685;-74
2023/12/07 07:16:24;;;;;;;23.50;11.07;;;;;;;-142.32;100.00;62735.25;4983495;28;20732;-74
2023/12/07 07:18:50;;;;;;;25.57;11.40;;;;;;;-142.32;100.00;62735.25;4995579;28;20322;-75
2023/12/07 07:21:15;;;;;;;22.23;10.53;;;;;;;-142.32;100.00;62735.25;4980016;28;20242;-74
2023/12/07 07:23:41;;;;;;;21.90;10.20;;;;;;;-142.32;100.00;62735.25;4983134;28;21025;-74
2023/12/07 07:26:08;;;;;;;23.57;11.30;;;;;;;-142.32;100.00;62735.25;4982915;28;20271;-74
2023/12/07 07:28:34;;;;;;;25.23;12.33;;;;;;;-142.32;100.00;62735.25;4976024;28;20611;-72
2023/12/07 07:31:00;;;;;;;25.13;12.50;;;;;;;-142.32;100.00;62735.25;4967431;28;20239;-74
2023/12/07 07:33:25;;;;;;;25.53;12.40;;;;;;;-142.32;100.00;62735.25;4976822;28;20319;-74
2023/12/07 07:35:51;;;;;;;28.53;13.37;;;;;;;-142.32;100.00;62735.25;4986647;28;20243;-73
2023/12/07 07:38:16;;;;;;;22.60;11.40;;;;;;;-142.32;100.00;62735.25;4979275;28;20342;-73
2023/12/07 07:40:42;;;;;;;24.60;11.13;;;;;;;-142.32;100.00;62735.25;4978590;28;20273;-74
2023/12/07 07:43:08;;;;;;;23.37;11.23;;;;;;;-142.32;100.00;62735.25;4988154;28;20248;-74
2023/12/07 07:45:34;;;;;;;23.90;11.10;;;;;;;-142.32;100.00;62735.25;4961156;28;20350;-75
2023/12/07 07:48:00;;;;;;;23.73;11.50;;;;;;;-142.32;100.00;62735.25;4973000;28;20285;-74
2023/12/07 07:50:26;;;;;;;20.87;11.27;;;;;;;-142.32;100.00;62735.25;4978322;28;20235;-74
2023/12/07 07:52:51;;;;;;;20.37;10.97;;;;;;;-142.32;100.00;62735.25;4974005;28;20232;-75
2023/12/07 07:55:17;;;;;;;23.17;10.93;;;;;;;-142.32;100.00;62735.25;4975076;28;20243;-75
2023/12/07 07:57:43;;;;;;;23.30;11.43;;;;;;;-142.32;100.00;62735.25;4976879;28;20701;-74
2023/12/07 08:00:09;;;;;;;21.87;11.43;;;;;;;-142.32;100.00;62735.25;4975547;28;20289;-75
2023/12/07 08:02:38;;;;;;;25.23;10.53;;;;;;;-142.32;100.00;62735.25;4982661;28;20239;-75
2023/12/07 08:05:04;;;;;;;17.90;9.37;;;;;;;-142.32;100.00;62735.25;4990974;28;20243;-76
2023/12/07 08:07:30;;;;;;;15.87;7.57;;;;;;;-142.32;100.00;62735.25;4992306;28;20269;-75
2023/12/07 08:09:55;;;;;;;11.93;6.90;;;;;;;-142.32;100.00;62735.25;4974804;28;20954;-77
2023/12/07 08:12:24;;;;;;;10.60;6.47;;;;;;;-142.32;100.00;62735.25;4982003;28;21041;-76
2023/12/07 08:14:49;;;;;;;15.20;6.90;;;;;;;-142.32;100.00;62735.25;4982270;28;20266;-76
2023/12/07 08:17:22;;;;;;;12.40;6.60;;;;;;;-142.32;100.00;62735.25;4974696;28;20231;-76
2023/12/07 08:19:48;;;;;;;13.00;6.63;;;;;;;-142.32;100.00;62735.25;4976563;28;20720;-75
2023/12/07 08:22:13;;;;;;;13.30;6.70;;;;;;;-142.32;100.00;62735.25;4975837;28;20231;-74
2023/12/07 08:24:40;;;;;;;12.90;6.73;;;;;;;-142.32;100.00;62735.25;4978802;28;20245;-74
2023/12/07 08:27:05;;;;;;;14.00;6.80;;;;;;;-142.32;100.00;62735.25;4980959;28;20239;-74
2023/12/07 08:29:31;;;;;;;14.00;7.00;;;;;;;-142.32;100.00;62735.25;4979846;28;20536;-74
2023/12/07 08:31:56;;;;;;;10.03;6.17;;;;;;;-142.32;100.00;62735.25;4956554;28;20232;-75
2023/12/07 08:34:23;;;;;;;9.73;5.63;;;;;;;-142.32;100.00;62735.25;4978528;28;20234;-75
2023/12/07 08:36:48;;;;;;;10.80;6.20;;;;;;;-142.32;100.00;62735.25;4977517;28;20239;-74
2023/12/07 08:39:14;;;;;;;9.70;5.63;;;;;;;-142.32;100.00;62735.25;4965844;28;20668;-74
2023/12/07 08:41:40;;;;;;;9.73;5.03;;;;;;;-142.32;100.00;62735.25;4983133;28;20222;-72
2023/12/07 08:44:05;;;;;;;7.40;4.60;;;;;;;-142.32;100.00;62735.25;4983795;28;21096;-73
2023/12/07 08:46:31;;;;;;;9.73;4.90;;;;;;;-142.32;100.00;62735.25;4975695;28;20236;-73
2023/12/07 08:48:56;;;;;;;7.73;4.53;;;;;;;-142.32;100.00;62735.25;4959423;28;20343;-74
2023/12/07 08:51:23;;;;;;;9.80;4.30;;;;;;;-142.32;100.00;62735.25;4973051;28;20238;-74
2023/12/07 08:53:49;;;;;;;7.60;4.07;;;;;;;-142.32;100.00;62735.25;4963823;28;20232;-73
2023/12/07 08:56:15;;;;;;;7.30;4.63;;;;;;;-142.32;100.00;62735.25;4955957;28;20238;-73
2023/12/07 08:58:41;;;;;;;7.97;4.50;;;;;;;-142.32;100.00;62735.25;4982433;28;20289;-72
2023/12/07 09:01:06;;;;;;;7.90;4.67;;;;;;;-142.32;100.00;62735.25;4974987;28;20255;-73
2023/12/07 09:03:33;;;;;;;9.97;4.63;;;;;;;-142.32;100.00;62735.25;4966402;28;20274;-73
2023/12/07 09:05:59;;;;;;;6.53;4.20;;;;;;;-142.32;100.00;62735.25;4998118;28;20244;-74
2023/12/07 09:08:24;;;;;;;6.67;3.90;;;;;;;-142.32;100.00;62735.25;4980483;28;20246;-74
2023/12/07 09:10:51;;;;;;;6.77;4.20;;;;;;;-142.32;100.00;62735.25;4977934;28;20244;-74
2023/12/07 09:13:17;;;;;;;5.67;3.70;;;;;;;-142.32;100.00;62735.25;4980794;28;20906;-74
2023/12/07 09:15:42;;;;;;;6.83;3.90;;;;;;;-142.32;100.00;62735.25;4978003;28;20234;-74
2023/12/07 09:18:08;;;;;;;10.37;3.90;;;;;;;-142.32;100.00;62735.25;4993644;28;20236;-76
2023/12/07 09:20:34;;;;;;;6.60;3.73;;;;;;;-142.32;100.00;62735.25;4965396;28;20306;-76
2023/12/07 09:23:00;;;;;;;7.53;3.80;;;;;;;-142.32;100.00;62735.25;4961079;28;20231;-76
2023/12/07 09:25:29;;;;;;;6.13;3.73;;;;;;;-142.32;100.00;62735.25;4973345;28;20310;-76
2023/12/07 09:27:56;;;;;;;5.97;3.50;;;;;;;-142.32;100.00;62735.25;4977955;28;20626;-74
2023/12/07 09:30:21;;;;;;;5.70;3.40;;;;;;;-142.32;100.00;62735.25;4960138;28;20290;-74
2023/12/07 09:32:47;;;;;;;6.63;3.33;;;;;;;-142.32;100.00;62735.25;4977931;28;20220;-74
2023/12/07 09:35:19;;;;;;;6.00;3.63;;;;;;;-142.32;100.00;62735.25;4993362;28;20228;-75
2023/12/07 09:37:45;;;;;;;5.37;3.50;;;;;;;-142.32;100.00;62735.25;4976465;28;20719;-73
2023/12/07 09:40:24;;;;;;;4.60;3.20;;;;;;;-142.32;100.00;62735.25;4992863;28;20223;-74
2023/12/07 09:42:50;;;;;;;5.07;3.20;;;;;;;-142.32;100.00;62735.25;4992377;28;20238;-71
2023/12/07 09:45:18;;;;;;;5.03;3.10;;;;;;;-142.32;100.00;62735.25;4988683;28;20287;-73
2023/12/07 09:47:45;;;;;;;5.83;2.90;;;;;;;-142.32;100.00;62735.25;4974503;28;20258;-75
2023/12/07 09:50:11;;;;;;;5.73;2.60;;;;;;;-142.32;100.00;62735.25;4973162;28;20751;-76
2023/12/07 09:52:37;;;;;;;7.17;3.10;;;;;;;-142.32;100.00;62735.25;4973424;28;20758;-76
2023/12/07 09:55:03;;;;;;;5.50;3.30;;;;;;;-142.32;100.00;62735.25;4980781;28;20251;-76
2023/12/07 09:57:29;;;;;;;5.87;3.30;;;;;;;-142.32;100.00;62735.25;4979435;28;20228;-75
2023/12/07 09:59:58;;;;;;;5.53;3.50;;;;;;;-142.32;100.00;62735.25;4963552;28;20230;-76
2023/12/07 10:02:23;;;;;;;4.97;3.23;;;;;;;-142.32;100.00;62735.25;4965190;28;20658;-76
2023/12/07 10:05:04;;;;;;;4.93;2.97;;;;;;;-142.32;100.00;62735.25;4976594;28;20246;-75
2023/12/07 10:07:48;;;;;;;5.13;2.90;;;;;;;-142.32;100.00;62735.25;4960414;28;20289;-76
2023/12/07 10:10:15;;;;;;;5.50;3.30;;;;;;;-142.32;100.00;62735.25;4981241;28;20266;-75
2023/12/07 10:12:51;;;;;;;5.37;3.10;;;;;;;-142.32;100.00;62735.25;4974592;28;20290;-73
2023/12/07 10:15:17;;;;;;;4.13;2.60;;;;;;;-142.32;100.00;62735.25;4990450;28;20243;-73
2023/12/07 10:17:48;;;;;;;3.77;2.60;;;;;;;-142.32;100.00;62735.25;4976547;28;20231;-74
2023/12/07 10:20:15;;;;;;;5.03;2.67;;;;;;;-142.32;100.00;62735.25;4983928;28;20236;-74
2023/12/07 10:22:41;;;;;;;3.73;2.47;;;;;;;-142.32;100.00;62735.25;4989225;28;20239;-73
2023/12/07 10:25:07;;;;;;;4.00;2.60;;;;;;;-142.32;100.00;62735.25;4975461;28;20593;-73
2023/12/07 10:27:33;;;;;;;5.20;2.60;;;;;;;-142.32;100.00;62735.25;4992714;28;20251;-74
2023/12/07 10:29:59;;;;;;;4.23;2.37;;;;;;;-142.32;100.00;62735.25;4991340;28;20877;-74
2023/12/07 10:32:25;;;;;;;5.57;2.57;;;;;;;-142.32;100.00;62735.25;4972224;28;20247;-74
2023/12/07 10:34:52;;;;;;;3.83;2.20;;;;;;;-142.32;100.00;62735.25;4989453;28;20263;-74
2023/12/07 10:37:17;;;;;;;3.67;2.33;;;;;;;-142.32;100.00;62735.25;4971629;28;20267;-74
2023/12/07 10:39:43;;;;;;;3.47;2.30;;;;;;;-142.32;100.00;62735.25;4968960;28;20905;-74
2023/12/07 10:42:10;;;;;;;3.57;2.30;;;;;;;-142.32;100.00;62735.25;4972019;28;20239;-73
2023/12/07 10:44:36;;;;;;;3.13;2.00;;;;;;;-142.32;100.00;62735.25;4969195;28;20838;-74
2023/12/07 10:47:02;;;;;;;3.80;2.33;;;;;;;-142.32;100.00;62735.25;4974751;28;20231;-73
2023/12/07 10:49:28;;;;;;;4.53;2.33;;;;;;;-142.32;100.00;62735.25;4975434;28;20274;-73
2023/12/07 10:52:00;;;;;;;3.23;2.33;;;;;;;-142.32;100.00;62735.25;4990752;28;20305;-74
2023/12/07 10:54:28;;;;;;;3.73;2.43;;;;;;;-142.32;100.00;62735.25;4979762;28;20255;-74
2023/12/07 10:56:54;;;;;;;21.70;2.97;;;;;;;-142.32;100.00;62735.25;4974046;28;20677;-74
2023/12/07 10:59:20;;;;;;;5.07;2.73;;;;;;;-142.32;100.00;62735.25;4989998;28;20254;-75
2023/12/07 11:01:45;;;;;;;4.70;3.13;;;;;;;-142.32;100.00;62735.25;4959859;28;20227;-73